Time;durP1;ratioP1;P1;durP2;ratioP2;P2;SDS_P1;SDS_P2;PMS_P1;PMS_P2;Temp;Humidity;BMP_temperature;BMP_pressure;BME280_temperature;BME280_humidity;BME280_pressure;Samples;Min_cycle;Max_cycle;Signal;HPM_P1;HPM_P2
2022/12/11 10:43:00;;;;;;;4.13;0.57;;;1.40;99.90;;;;;;5774820;22;20501;-84
2022/12/11 10:45:27;;;;;;;0.53;0.40;;;1.40;99.90;;;;;;5056276;28;20460;-84
2022/12/11 10:48:03;;;;;;;0.40;0.40;;;1.50;99.90;;;;;;5056173;28;20454;-84
2022/12/11 10:50:29;;;;;;;0.30;0.27;;;1.50;99.90;;;;;;5055914;28;20914;-84
2022/12/11 10:52:56;;;;;;;1.83;1.73;;;1.50;99.90;;;;;;5055967;28;20476;-84
2022/12/11 10:55:27;;;;;;;0.40;0.40;;;1.50;99.90;;;;;;5055669;28;20454;-82
2022/12/11 10:57:57;;;;;;;0.43;0.37;;;1.50;99.90;;;;;;5055653;28;20930;-84
2022/12/11 11:00:34;;;;;;;1.47;0.47;;;1.50;99.90;;;;;;5056054;28;20445;-84
2022/12/11 11:03:02;;;;;;;0.40;0.40;;;1.60;99.90;;;;;;5055802;28;20473;-84
2022/12/11 11:05:33;;;;;;;2.53;0.73;;;1.70;99.90;;;;;;5055727;28;20462;-85
2022/12/11 11:08:10;;;;;;;1.30;1.23;;;1.80;99.90;;;;;;5056129;28;20851;-84
2022/12/11 11:10:37;;;;;;;0.57;0.57;;;1.80;99.90;;;;;;5055548;28;20435;-85
2022/12/11 11:13:04;;;;;;;0.40;0.40;;;1.80;99.90;;;;;;5055751;28;21008;-85
2022/12/11 11:15:33;;;;;;;0.60;0.60;;;1.80;99.90;;;;;;5055824;28;20473;-85
2022/12/11 11:18:11;;;;;;;0.30;0.30;;;1.80;99.90;;;;;;5055823;28;20473;-85
2022/12/11 11:20:46;;;;;;;0.60;0.30;;;1.80;99.90;;;;;;5055743;28;20434;-85
2022/12/11 11:23:16;;;;;;;0.40;0.30;;;1.70;99.90;;;;;;5055542;28;20501;-85
2022/12/11 11:25:51;;;;;;;0.60;0.60;;;1.70;99.90;;;;;;5055389;28;20446;-85
2022/12/11 11:28:21;;;;;;;0.40;0.30;;;1.70;99.90;;;;;;5055756;28;20430;-85
2022/12/11 11:31:00;;;;;;;0.47;0.47;;;1.70;99.90;;;;;;5056514;28;20459;-85
2022/12/11 11:33:27;;;;;;;0.70;0.70;;;1.80;99.90;;;;;;5055690;28;20477;-85
2022/12/11 11:35:56;;;;;;;0.30;0.30;;;1.80;99.90;;;;;;5055328;28;20464;-85
2022/12/11 11:38:27;;;;;;;0.70;0.70;;;1.70;99.90;;;;;;5055486;28;20449;-85
2022/12/11 11:41:00;;;;;;;2.17;0.60;;;1.60;99.90;;;;;;5055598;28;20517;-85
2022/12/11 11:43:36;;;;;;;0.30;0.30;;;1.50;99.90;;;;;;5055126;28;20482;-85
2022/12/11 11:46:08;;;;;;;0.37;0.33;;;1.70;99.90;;;;;;5055393;28;20430;-85
2022/12/11 11:48:43;;;;;;;0.77;0.67;;;1.70;99.90;;;;;;5055350;28;20434;-85
2022/12/11 11:51:15;;;;;;;2.20;0.47;;;1.80;99.90;;;;;;5054951;28;20434;-85
2022/12/11 11:53:47;;;;;;;0.40;0.37;;;1.80;99.90;;;;;;5055168;28;20470;-85
2022/12/11 11:56:21;;;;;;;0.80;0.80;;;1.80;99.90;;;;;;5055320;28;20808;-85
2022/12/11 11:58:58;;;;;;;0.50;0.37;;;1.80;99.90;;;;;;5055183;28;20435;-85
2022/12/11 12:01:26;;;;;;;0.30;0.30;;;1.90;99.90;;;;;;5055463;28;20439;-85
2022/12/11 12:03:53;;;;;;;0.70;0.60;;;1.90;99.90;;;;;;5054886;28;20488;-85
2022/12/11 12:06:29;;;;;;;1.80;1.17;;;1.80;99.90;;;;;;5054921;28;20460;-86
2022/12/11 12:09:05;;;;;;;1.73;0.70;;;1.80;99.90;;;;;;5054580;28;20901;-85
2022/12/11 12:11:38;;;;;;;0.37;0.37;;;1.80;99.90;;;;;;5054805;28;20430;-87
2022/12/11 12:14:15;;;;;;;0.40;0.30;;;1.70;99.90;;;;;;5055003;28;20478;-86
2022/12/11 12:16:51;;;;;;;0.40;0.40;;;1.70;99.90;;;;;;5054820;28;20441;-84
2022/12/11 12:19:35;;;;;;;0.40;0.40;;;1.70;99.90;;;;;;5054279;28;20866;-85
2022/12/11 12:22:14;;;;;;;0.40;0.30;;;1.80;99.90;;;;;;5054332;28;20434;-84
2022/12/11 12:24:53;;;;;;;1.90;0.90;;;1.80;99.90;;;;;;5054381;28;20477;-84
2022/12/11 12:27:24;;;;;;;0.30;0.30;;;1.80;99.90;;;;;;5054980;28;20435;-84
2022/12/11 12:29:59;;;;;;;5.70;1.37;;;1.80;99.90;;;;;;5054376;28;20442;-84
2022/12/11 12:32:37;;;;;;;0.40;0.40;;;1.80;99.90;;;;;;5054290;28;20513;-85
2022/12/11 12:35:15;;;;;;;0.43;0.43;;;1.80;99.90;;;;;;5054501;28;20449;-85
2022/12/11 12:37:53;;;;;;;0.50;0.50;;;1.80;99.90;;;;;;5054195;28;20457;-84
2022/12/11 12:40:28;;;;;;;0.40;0.30;;;1.80;99.90;;;;;;5054216;28;20434;-84
2022/12/11 12:43:05;;;;;;;0.40;0.40;;;1.80;99.90;;;;;;5053779;28;20493;-85
2022/12/11 12:45:39;;;;;;;0.60;0.50;;;1.80;99.90;;;;;;5053997;28;20537;-84
2022/12/11 12:48:09;;;;;;;0.50;0.40;;;1.80;99.90;;;;;;5054328;28;20771;-84
2022/12/11 12:50:42;;;;;;;3.70;0.77;;;1.80;99.90;;;;;;5053897;28;20844;-85
2022/12/11 12:53:14;;;;;;;0.60;0.60;;;1.80;99.90;;;;;;5053859;28;20466;-85
2022/12/11 12:55:41;;;;;;;0.40;0.40;;;1.70;99.90;;;;;;5053849;28;20434;-85
2022/12/11 12:58:23;;;;;;;2.47;1.33;;;1.60;99.90;;;;;;5053781;28;20453;-85
2022/12/11 13:00:50;;;;;;;0.50;0.50;;;1.50;99.90;;;;;;5053776;28;20435;-85
2022/12/11 13:03:21;;;;;;;0.40;0.40;;;1.40;99.90;;;;;;5053636;28;20477;-84
2022/12/11 13:05:57;;;;;;;0.63;0.50;;;1.40;99.90;;;;;;5053746;28;20438;-84
2022/12/11 13:08:25;;;;;;;0.83;0.40;;;1.50;99.90;;;;;;5053378;28;20944;-85
2022/12/11 13:11:00;;;;;;;0.93;0.93;;;1.50;99.90;;;;;;5053536;28;20945;-84
2022/12/11 13:13:34;;;;;;;4.10;1.00;;;1.40;99.90;;;;;;5053867;28;20469;-84
2022/12/11 13:16:23;;;;;;;1.07;1.07;;;1.40;99.90;;;;;;5053493;28;20821;-84
2022/12/11 13:18:52;;;;;;;0.93;0.93;;;1.30;99.90;;;;;;5053550;28;20434;-84
2022/12/11 13:21:29;;;;;;;0.53;0.53;;;1.30;99.90;;;;;;5053478;28;20452;-84
2022/12/11 13:24:13;;;;;;;0.50;0.50;;;1.30;99.90;;;;;;5053223;28;20985;-84
2022/12/11 13:26:41;;;;;;;0.30;0.30;;;1.40;99.90;;;;;;5053492;28;20447;-84
2022/12/11 13:29:29;;;;;;;0.80;0.63;;;1.40;99.90;;;;;;5053058;28;20446;-85
2022/12/11 13:31:58;;;;;;;1.80;0.63;;;1.40;99.90;;;;;;5053423;28;20465;-84
2022/12/11 13:34:31;;;;;;;0.30;0.30;;;1.50;99.90;;;;;;5052860;28;20446;-84
2022/12/11 13:36:58;;;;;;;0.40;0.40;;;1.30;99.90;;;;;;5053377;28;20931;-84
2022/12/11 13:39:27;;;;;;;0.63;0.50;;;1.20;99.90;;;;;;5053175;28;20946;-84
2022/12/11 13:41:56;;;;;;;0.80;0.67;;;1.20;99.90;;;;;;5053239;28;20481;-84
2022/12/11 13:44:27;;;;;;;0.50;0.50;;;1.20;99.90;;;;;;5052773;28;21024;-84
2022/12/11 13:46:56;;;;;;;0.40;0.30;;;1.10;99.90;;;;;;5053205;28;20430;-84
2022/12/11 13:49:27;;;;;;;0.30;0.30;;;1.20;99.90;;;;;;5053188;28;20454;-84
2022/12/11 13:51:57;;;;;;;0.30;0.30;;;1.20;99.90;;;;;;5053278;28;20442;-84
2022/12/11 13:54:24;;;;;;;0.30;0.20;;;1.30;99.90;;;;;;5053205;28;20469;-82
2022/12/11 13:57:01;;;;;;;0.30;0.30;;;1.20;99.90;;;;;;5053164;28;20450;-84
2022/12/11 13:59:31;;;;;;;0.30;0.30;;;1.30;99.90;;;;;;5053168;28;20434;-84
2022/12/11 14:02:03;;;;;;;0.33;0.30;;;1.30;99.90;;;;;;5054100;28;20443;-84
2022/12/11 14:04:34;;;;;;;0.40;0.30;;;1.30;99.90;;;;;;5053011;28;20470;-84
2022/12/11 14:07:02;;;;;;;0.90;0.90;;;1.40;99.90;;;;;;5053094;28;20430;-84
2022/12/11 14:09:29;;;;;;;0.30;0.30;;;1.40;99.90;;;;;;5052933;28;20442;-84
2022/12/11 14:11:59;;;;;;;0.40;0.40;;;1.40;99.90;;;;;;5053065;28;20833;-84
2022/12/11 14:14:38;;;;;;;0.30;0.30;;;1.40;99.90;;;;;;5053119;28;20522;-84
2022/12/11 14:17:05;;;;;;;0.90;0.63;;;1.30;99.90;;;;;;5052905;28;20434;-83
2022/12/11 14:19:33;;;;;;;1.23;0.43;;;1.30;99.90;;;;;;5052848;28;20446;-84
2022/12/11 14:22:01;;;;;;;0.50;0.40;;;1.30;99.90;;;;;;5052762;28;20446;-84
2022/12/11 14:24:29;;;;;;;0.50;0.50;;;1.30;99.90;;;;;;5052767;28;20470;-84
2022/12/11 14:26:57;;;;;;;0.60;0.60;;;1.30;99.90;;;;;;5052814;28;20484;-84
2022/12/11 14:29:29;;;;;;;0.30;0.20;;;1.30;99.90;;;;;;5052636;28;20446;-84
2022/12/11 14:31:59;;;;;;;0.50;0.50;;;1.30;99.90;;;;;;5052598;28;20484;-84
2022/12/11 14:34:29;;;;;;;0.57;0.57;;;1.30;99.90;;;;;;5052658;28;20442;-84
2022/12/11 14:36:58;;;;;;;1.37;0.87;;;1.20;99.90;;;;;;5052502;28;20914;-84
2022/12/11 14:39:30;;;;;;;0.30;0.30;;;1.20;99.90;;;;;;5052756;28;20460;-85
2022/12/11 14:42:01;;;;;;;0.93;0.93;;;1.20;99.90;;;;;;5052437;28;20925;-82
2022/12/11 14:44:31;;;;;;;0.30;0.30;;;1.20;99.90;;;;;;5052637;28;20509;-84
2022/12/11 14:47:01;;;;;;;0.30;0.30;;;1.10;99.90;;;;;;5055833;28;20435;-84
2022/12/11 14:49:40;;;;;;;0.60;0.60;;;1.10;99.90;;;;;;5056244;28;20451;-84
2022/12/11 14:52:16;;;;;;;0.37;0.37;;;1.00;99.90;;;;;;5056246;28;20469;-84
2022/12/11 14:54:49;;;;;;;9.00;0.83;;;1.00;99.90;;;;;;5056896;28;20473;-84
2022/12/11 14:57:20;;;;;;;0.60;0.60;;;0.90;99.90;;;;;;5056195;28;20445;-85
2022/12/11 14:59:49;;;;;;;0.33;0.33;;;0.90;99.90;;;;;;5056381;28;20430;-84
2022/12/11 15:02:26;;;;;;;5.60;1.27;;;0.90;99.90;;;;;;5055997;28;20937;-84
2022/12/11 15:05:17;;;;;;;0.50;0.40;;;0.80;99.90;;;;;;5055978;28;20503;-84
2022/12/11 15:07:55;;;;;;;0.30;0.30;;;0.80;99.90;;;;;;5056036;28;20886;-84
2022/12/11 15:10:24;;;;;;;0.40;0.40;;;0.70;99.90;;;;;;5055992;28;20802;-84
2022/12/11 15:12:52;;;;;;;0.30;0.30;;;0.70;99.90;;;;;;5055832;28;20462;-84
2022/12/11 15:15:19;;;;;;;0.30;0.30;;;0.70;99.90;;;;;;5055794;28;20449;-85
2022/12/11 15:17:47;;;;;;;2.93;0.60;;;0.70;99.90;;;;;;5055717;28;20457;-84
2022/12/11 15:20:27;;;;;;;0.70;0.47;;;0.70;99.90;;;;;;5055725;28;20446;-84
2022/12/11 15:22:59;;;;;;;0.30;0.30;;;0.60;99.90;;;;;;5055612;28;20469;-84
2022/12/11 15:25:28;;;;;;;0.90;0.90;;;0.60;99.90;;;;;;5055555;28;20467;-84
2022/12/11 15:27:57;;;;;;;0.80;0.60;;;0.60;99.90;;;;;;5056269;28;20799;-84
2022/12/11 15:30:33;;;;;;;0.50;0.50;;;0.50;99.90;;;;;;5056697;28;20453;-84
2022/12/11 15:33:21;;;;;;;0.40;0.40;;;0.50;99.90;;;;;;5055770;28;20480;-85
2022/12/11 15:35:56;;;;;;;0.30;0.30;;;0.40;99.90;;;;;;5050614;28;20458;-84
2022/12/11 15:38:38;;;;;;;0.70;0.70;;;0.40;99.90;;;;;;5055506;28;20806;-85
2022/12/11 15:41:07;;;;;;;1.90;1.80;;;0.40;99.90;;;;;;5055383;28;20438;-85
2022/12/11 15:43:36;;;;;;;0.47;0.40;;;0.30;99.90;;;;;;5054900;28;20482;-85
2022/12/11 15:46:04;;;;;;;0.30;0.30;;;0.30;99.90;;;;;;5055099;28;20483;-85
2022/12/11 15:48:30;;;;;;;3.70;0.80;;;0.20;99.90;;;;;;5055118;28;20446;-84
2022/12/11 15:50:57;;;;;;;0.50;0.43;;;0.20;99.90;;;;;;5055097;28;20454;-84
2022/12/11 15:53:24;;;;;;;0.30;0.30;;;0.20;99.90;;;;;;5055038;28;20467;-85
2022/12/11 15:55:53;;;;;;;0.40;0.40;;;0.10;99.90;;;;;;5054676;28;20591;-85
2022/12/11 15:58:23;;;;;;;1.13;0.80;;;0.10;99.90;;;;;;5054661;28;20964;-84
2022/12/11 16:00:50;;;;;;;0.30;0.30;;;0.10;99.90;;;;;;5054962;28;20456;-85
2022/12/11 16:03:18;;;;;;;1.57;0.50;;;0.10;99.90;;;;;;5054849;28;20558;-85
2022/12/11 16:05:46;;;;;;;1.33;0.67;;;0.10;99.90;;;;;;5054833;28;20486;-85
2022/12/11 16:08:14;;;;;;;0.40;0.40;;;0.10;99.90;;;;;;5054910;28;20446;-85
2022/12/11 16:10:42;;;;;;;0.40;0.40;;;0.00;99.90;;;;;;5054938;28;20509;-85
2022/12/11 16:13:10;;;;;;;0.30;0.30;;;0.00;99.90;;;;;;5055037;28;20481;-85
2022/12/11 16:15:38;;;;;;;0.40;0.40;;;0.00;99.90;;;;;;5054981;28;20427;-85
2022/12/11 16:18:06;;;;;;;0.30;0.30;;;-0.10;99.90;;;;;;5054697;28;20456;-85
2022/12/11 16:20:34;;;;;;;0.50;0.50;;;-0.10;99.90;;;;;;5054622;28;20461;-85
2022/12/11 16:23:01;;;;;;;0.40;0.40;;;-0.10;99.90;;;;;;5054464;28;20527;-86
2022/12/11 16:25:28;;;;;;;0.50;0.40;;;-0.10;99.90;;;;;;5054356;28;20478;-85
2022/12/11 16:27:56;;;;;;;0.30;0.27;;;-0.20;99.90;;;;;;5054502;28;20450;-85
2022/12/11 16:30:25;;;;;;;0.50;0.50;;;-0.30;99.90;;;;;;5054412;28;20431;-85
2022/12/11 16:32:52;;;;;;;0.30;0.30;;;-0.30;99.90;;;;;;5054307;28;21008;-85
2022/12/11 16:35:19;;;;;;;0.30;0.30;;;-0.40;99.90;;;;;;5054910;28;20461;-85
2022/12/11 16:37:49;;;;;;;0.40;0.40;;;-0.40;99.90;;;;;;5055250;28;20450;-85
2022/12/11 16:40:16;;;;;;;1.10;1.10;;;-0.40;99.90;;;;;;5055761;28;20476;-85
2022/12/11 16:42:43;;;;;;;0.40;0.40;;;-0.40;99.90;;;;;;5055073;28;20497;-85
2022/12/11 16:45:13;;;;;;;0.33;0.33;;;-0.50;99.90;;;;;;5054991;28;20486;-85
2022/12/11 16:47:43;;;;;;;0.97;0.97;;;-0.50;99.90;;;;;;5055498;28;20450;-85
2022/12/11 16:50:11;;;;;;;0.37;0.37;;;-0.50;99.90;;;;;;5055163;28;20513;-85
2022/12/11 16:52:38;;;;;;;1.27;1.17;;;-0.40;99.90;;;;;;5054647;28;21005;-85
2022/12/11 16:55:05;;;;;;;0.60;0.60;;;-0.40;99.90;;;;;;5054671;28;20500;-85
2022/12/11 16:57:32;;;;;;;0.60;0.60;;;-0.40;99.90;;;;;;5053967;28;20458;-85
2022/12/11 16:59:59;;;;;;;0.40;0.40;;;-0.40;99.90;;;;;;5053929;28;20472;-85
2022/12/11 17:02:26;;;;;;;0.73;0.60;;;-0.40;99.90;;;;;;5053873;28;20472;-85
2022/12/11 17:04:54;;;;;;;0.60;0.57;;;-0.40;99.90;;;;;;5053373;28;20997;-84
2022/12/11 17:07:20;;;;;;;0.30;0.30;;;-0.30;99.90;;;;;;5053117;28;20446;-85
2022/12/11 17:09:47;;;;;;;1.17;1.17;;;-0.30;99.90;;;;;;5053335;28;20821;-85
2022/12/11 17:12:14;;;;;;;0.50;0.50;;;-0.30;99.90;;;;;;5053818;28;20454;-85
2022/12/11 17:14:41;;;;;;;0.30;0.30;;;-0.30;99.90;;;;;;5053693;28;20451;-85
2022/12/11 17:17:08;;;;;;;1.23;0.57;;;-0.30;99.90;;;;;;5053782;28;20976;-85
2022/12/11 17:19:36;;;;;;;1.43;0.60;;;-0.30;99.90;;;;;;5053710;28;20450;-85
2022/12/11 17:22:04;;;;;;;0.30;0.30;;;-0.30;99.90;;;;;;5053597;28;20461;-85
2022/12/11 17:24:30;;;;;;;0.93;0.93;;;-0.30;99.90;;;;;;5053341;28;20938;-85
2022/12/11 17:26:58;;;;;;;0.30;0.30;;;-0.30;99.90;;;;;;5053454;28;20482;-85
2022/12/11 17:29:25;;;;;;;4.00;0.60;;;-0.20;99.90;;;;;;5053593;28;20458;-85
2022/12/11 17:31:52;;;;;;;0.60;0.60;;;-0.30;99.90;;;;;;5053126;28;20972;-85
2022/12/11 17:34:18;;;;;;;0.30;0.30;;;-0.20;99.90;;;;;;5053249;28;20470;-85
2022/12/11 17:36:45;;;;;;;1.43;1.43;;;-0.30;99.90;;;;;;5053720;28;20446;-85
2022/12/11 17:39:14;;;;;;;0.40;0.40;;;-0.30;99.90;;;;;;5053151;28;20967;-85
2022/12/11 17:41:40;;;;;;;0.30;0.30;;;-0.40;99.90;;;;;;5053393;28;20789;-85
2022/12/11 17:44:07;;;;;;;0.63;0.63;;;-0.40;99.90;;;;;;5053016;28;20598;-85
2022/12/11 17:46:34;;;;;;;1.03;0.50;;;-0.40;99.90;;;;;;5053405;28;20535;-86
2022/12/11 17:49:03;;;;;;;0.77;0.77;;;-0.50;99.90;;;;;;5053508;28;20420;-86
2022/12/11 17:51:29;;;;;;;0.40;0.40;;;-0.50;99.90;;;;;;5053486;28;20460;-86
2022/12/11 17:53:57;;;;;;;0.43;0.43;;;-0.50;99.90;;;;;;5053292;28;20466;-86
2022/12/11 17:56:25;;;;;;;0.50;0.50;;;-0.50;99.90;;;;;;5053395;28;20517;-86
2022/12/11 17:58:52;;;;;;;0.30;0.30;;;-0.50;99.90;;;;;;5053247;28;20466;-86
2022/12/11 18:01:19;;;;;;;0.67;0.67;;;-0.60;99.90;;;;;;5052893;28;20451;-86
2022/12/11 18:03:46;;;;;;;1.07;1.07;;;-0.60;99.90;;;;;;5053313;28;20462;-86
2022/12/11 18:06:14;;;;;;;1.43;1.33;;;-0.70;99.90;;;;;;5053107;28;20483;-86
2022/12/11 18:08:43;;;;;;;0.67;0.57;;;-0.70;99.90;;;;;;5052952;28;20455;-84
2022/12/11 18:11:12;;;;;;;0.40;0.40;;;-0.80;99.90;;;;;;5052730;28;20475;-86
2022/12/11 18:13:41;;;;;;;0.30;0.30;;;-0.80;99.90;;;;;;5053070;28;20473;-85
2022/12/11 18:16:11;;;;;;;0.30;0.30;;;-0.80;99.90;;;;;;5053038;28;20452;-85
2022/12/11 18:18:38;;;;;;;0.73;0.60;;;-0.80;99.90;;;;;;5052976;28;20446;-85
2022/12/11 18:21:06;;;;;;;0.53;0.53;;;-0.90;99.90;;;;;;5056639;28;20446;-86
2022/12/11 18:23:33;;;;;;;5.57;1.10;;;-1.00;99.90;;;;;;5056841;28;20473;-85
2022/12/11 18:26:00;;;;;;;0.77;0.77;;;-1.00;99.90;;;;;;5056486;28;20482;-85
2022/12/11 18:28:26;;;;;;;0.30;0.30;;;-1.10;99.90;;;;;;5056439;28;20456;-85
2022/12/11 18:30:54;;;;;;;4.30;0.77;;;-1.10;99.90;;;;;;5056733;28;20429;-85
2022/12/11 18:33:21;;;;;;;1.07;0.97;;;-1.20;99.90;;;;;;5056564;28;20474;-86
2022/12/11 18:35:49;;;;;;;1.67;1.33;;;-1.20;99.90;;;;;;5056544;28;20478;-85
2022/12/11 18:38:16;;;;;;;0.60;0.60;;;-1.20;99.90;;;;;;5056219;28;20421;-86
2022/12/11 18:40:42;;;;;;;0.30;0.20;;;-1.30;99.90;;;;;;5056396;28;20821;-85
2022/12/11 18:43:10;;;;;;;0.30;0.30;;;-1.30;99.90;;;;;;5056113;28;20488;-85
2022/12/11 18:45:39;;;;;;;0.30;0.30;;;-1.30;99.90;;;;;;5056050;28;20494;-85
2022/12/11 18:48:08;;;;;;;0.53;0.53;;;-1.20;99.90;;;;;;5056359;28;20421;-85
2022/12/11 18:50:35;;;;;;;0.60;0.57;;;-1.20;99.90;;;;;;5056309;28;20537;-80
2022/12/11 18:53:03;;;;;;;0.97;0.87;;;-1.20;99.90;;;;;;5056178;28;20524;-85
2022/12/11 18:55:30;;;;;;;0.50;0.50;;;-1.20;99.90;;;;;;5056299;28;20453;-85
2022/12/11 18:57:57;;;;;;;0.57;0.50;;;-1.20;99.90;;;;;;5056210;28;20454;-85
2022/12/11 19:00:23;;;;;;;0.37;0.37;;;-1.20;99.90;;;;;;5056087;28;20429;-85
2022/12/11 19:02:51;;;;;;;0.70;0.50;;;-1.20;99.90;;;;;;5056040;28;20470;-85
2022/12/11 19:05:19;;;;;;;2.10;0.97;;;-1.20;99.90;;;;;;5055978;28;20438;-85
2022/12/11 19:07:46;;;;;;;1.13;1.13;;;-1.20;99.90;;;;;;5056033;28;20421;-85
2022/12/11 19:10:13;;;;;;;0.30;0.30;;;-1.30;99.90;;;;;;5056798;28;20454;-85
2022/12/11 19:12:41;;;;;;;0.60;0.60;;;-1.30;99.90;;;;;;5055862;28;20467;-85
2022/12/11 19:15:09;;;;;;;0.40;0.40;;;-1.30;99.90;;;;;;5055899;28;20458;-85
2022/12/11 19:17:37;;;;;;;0.80;0.80;;;-1.30;99.90;;;;;;5055936;28;20429;-85
2022/12/11 19:20:04;;;;;;;1.10;1.07;;;-1.30;99.90;;;;;;5055437;28;20414;-85
2022/12/11 19:22:32;;;;;;;1.33;1.23;;;-1.40;99.90;;;;;;5055645;28;20466;-85
2022/12/11 19:25:00;;;;;;;1.63;1.63;;;-1.40;99.90;;;;;;5055914;28;20474;-86
2022/12/11 19:27:27;;;;;;;0.70;0.70;;;-1.50;99.90;;;;;;5055643;28;20513;-85
2022/12/11 19:29:54;;;;;;;0.30;0.20;;;-1.40;99.90;;;;;;5055691;28;20428;-85
2022/12/11 19:32:21;;;;;;;0.50;0.50;;;-1.40;99.90;;;;;;5054849;28;20474;-85
2022/12/11 19:34:48;;;;;;;0.50;0.43;;;-1.30;99.90;;;;;;5055682;28;20621;-86
2022/12/11 19:37:14;;;;;;;1.70;0.97;;;-1.30;99.90;;;;;;5055574;28;20450;-85
2022/12/11 19:39:42;;;;;;;1.23;1.07;;;-1.30;99.90;;;;;;5055496;28;20469;-86
2022/12/11 19:42:09;;;;;;;0.50;0.50;;;-1.30;99.90;;;;;;5055205;28;20450;-85
2022/12/11 19:44:36;;;;;;;0.40;0.40;;;-1.30;99.90;;;;;;5055462;28;20435;-86
2022/12/11 19:47:03;;;;;;;0.70;0.70;;;-1.20;99.90;;;;;;5055008;28;20507;-85
2022/12/11 19:49:30;;;;;;;0.60;0.60;;;-1.20;99.90;;;;;;5055284;28;20461;-86
2022/12/11 19:51:57;;;;;;;0.60;0.60;;;-1.20;99.90;;;;;;5055112;28;20439;-86
2022/12/11 19:54:25;;;;;;;2.30;1.57;;;-1.10;99.90;;;;;;5055130;28;20837;-86
2022/12/11 19:56:53;;;;;;;0.40;0.40;;;-1.10;99.90;;;;;;5055298;28;20451;-86
2022/12/11 19:59:20;;;;;;;11.10;1.33;;;-1.10;99.90;;;;;;5054674;28;20962;-85
2022/12/11 20:01:47;;;;;;;0.40;0.40;;;-1.00;99.90;;;;;;5055229;28;20537;-86
2022/12/11 20:04:16;;;;;;;0.53;0.50;;;-1.00;99.90;;;;;;5055167;28;20548;-87
2022/12/11 20:06:45;;;;;;;2.67;1.23;;;-1.00;99.90;;;;;;5054980;28;20855;-86
2022/12/11 20:09:12;;;;;;;0.70;0.70;;;-1.10;99.90;;;;;;5054974;28;20436;-85
2022/12/11 20:11:41;;;;;;;0.40;0.40;;;-1.00;99.90;;;;;;5054568;28;21000;-86
2022/12/11 20:14:15;;;;;;;1.07;0.50;;;-1.00;99.90;;;;;;5054563;28;20973;-86
2022/12/11 20:16:42;;;;;;;0.40;0.40;;;-0.90;99.90;;;;;;5054933;28;20430;-86
2022/12/11 20:19:09;;;;;;;0.30;0.30;;;-0.90;99.90;;;;;;5054455;28;20455;-86
2022/12/11 20:21:35;;;;;;;2.83;0.70;;;-0.90;99.90;;;;;;5054594;28;20541;-86
2022/12/11 20:24:02;;;;;;;0.30;0.30;;;-1.00;99.90;;;;;;5054643;28;20508;-85
2022/12/11 20:26:31;;;;;;;0.83;0.80;;;-1.00;99.90;;;;;;5054222;28;20964;-86
2022/12/11 20:28:58;;;;;;;0.40;0.40;;;-1.10;99.90;;;;;;5054381;28;20486;-86
2022/12/11 20:31:26;;;;;;;0.70;0.60;;;-1.10;99.90;;;;;;5054265;28;20465;-86
2022/12/11 20:33:55;;;;;;;0.70;0.57;;;-1.20;99.90;;;;;;5054789;28;20478;-86
2022/12/11 20:36:23;;;;;;;3.10;0.90;;;-1.30;99.90;;;;;;5054463;28;20795;-86
2022/12/11 20:38:50;;;;;;;2.47;0.50;;;-1.30;99.90;;;;;;5054442;28;20450;-86
2022/12/11 20:41:20;;;;;;;2.50;0.97;;;-1.40;99.90;;;;;;5054039;28;20421;-85
2022/12/11 20:43:48;;;;;;;1.03;0.77;;;-1.50;99.90;;;;;;5053843;28;20464;-86
2022/12/11 20:46:17;;;;;;;0.50;0.50;;;-1.50;99.90;;;;;;5054150;28;20536;-85
2022/12/11 20:48:45;;;;;;;0.70;0.70;;;-1.50;99.90;;;;;;5054199;28;20453;-86
2022/12/11 20:51:14;;;;;;;0.30;0.30;;;-1.50;99.90;;;;;;5054202;28;20435;-85
2022/12/11 20:53:42;;;;;;;0.73;0.73;;;-1.50;99.90;;;;;;5054113;28;20473;-85
2022/12/11 20:56:10;;;;;;;0.50;0.50;;;-1.50;99.90;;;;;;5054131;28;20462;-86
2022/12/11 20:58:37;;;;;;;0.90;0.90;;;-1.60;99.90;;;;;;5053754;28;20411;-85
2022/12/11 21:01:04;;;;;;;0.73;0.33;;;-1.60;99.90;;;;;;5053899;28;20969;-85
2022/12/11 21:03:32;;;;;;;2.93;1.00;;;-1.60;99.90;;;;;;5053875;28;20466;-85
2022/12/11 21:06:00;;;;;;;0.53;0.53;;;-1.70;99.90;;;;;;5053839;28;20540;-85
2022/12/11 21:08:27;;;;;;;0.30;0.30;;;-1.70;99.90;;;;;;5057948;28;20425;-85
2022/12/11 21:10:53;;;;;;;0.37;0.37;;;-1.80;99.90;;;;;;5053717;28;20435;-85
2022/12/11 21:13:21;;;;;;;0.53;0.53;;;-1.80;99.90;;;;;;5053690;28;20466;-85
2022/12/11 21:15:51;;;;;;;0.53;0.53;;;-1.80;99.90;;;;;;5053624;28;20436;-85
2022/12/11 21:18:18;;;;;;;0.50;0.50;;;-1.90;99.90;;;;;;5053797;28;20435;-85
2022/12/11 21:20:45;;;;;;;0.40;0.40;;;-1.90;99.90;;;;;;5053582;28;20827;-85
2022/12/11 21:23:13;;;;;;;0.30;0.30;;;-1.80;99.90;;;;;;5053508;28;20463;-85
2022/12/11 21:25:40;;;;;;;1.33;1.33;;;-1.80;99.90;;;;;;5053537;28;20447;-85
2022/12/11 21:28:07;;;;;;;0.47;0.47;;;-1.80;99.90;;;;;;5053487;28;20519;-85
2022/12/11 21:30:34;;;;;;;1.50;1.40;;;-1.80;99.90;;;;;;5053472;28;20416;-85
2022/12/11 21:33:00;;;;;;;0.30;0.30;;;-1.70;99.90;;;;;;5053182;28;20474;-85
2022/12/11 21:35:27;;;;;;;0.67;0.57;;;-1.60;99.90;;;;;;5053049;28;20425;-85
2022/12/11 21:37:54;;;;;;;0.60;0.60;;;-1.60;99.90;;;;;;5053481;28;20812;-85
2022/12/11 21:40:22;;;;;;;0.30;0.30;;;-1.50;99.90;;;;;;5053435;28;20451;-85
2022/12/11 21:42:49;;;;;;;0.83;0.83;;;-1.40;99.90;;;;;;5052815;28;20474;-85
2022/12/11 21:45:16;;;;;;;0.40;0.40;;;-1.40;99.90;;;;;;5053004;28;20486;-85
2022/12/11 21:47:43;;;;;;;0.73;0.73;;;-1.40;99.90;;;;;;5053248;28;20453;-85
2022/12/11 21:50:10;;;;;;;0.30;0.20;;;-1.30;99.90;;;;;;5053209;28;20450;-85
2022/12/11 21:52:38;;;;;;;0.30;0.30;;;-1.30;99.90;;;;;;5053232;28;20479;-85
2022/12/11 21:55:05;;;;;;;0.50;0.33;;;-1.20;99.90;;;;;;5055472;28;20838;-85
2022/12/11 21:57:34;;;;;;;0.30;0.30;;;-1.20;99.90;;;;;;5057186;28;20444;-85
2022/12/11 22:00:01;;;;;;;0.40;0.33;;;-1.20;99.90;;;;;;5057033;28;20453;-85
2022/12/11 22:02:27;;;;;;;0.50;0.50;;;-1.20;99.90;;;;;;5057236;28;20468;-85
2022/12/11 22:04:54;;;;;;;0.90;0.57;;;-1.20;99.90;;;;;;5057192;28;20466;-85
2022/12/11 22:07:21;;;;;;;0.50;0.50;;;-1.20;99.90;;;;;;5057074;28;20457;-85
2022/12/11 22:09:48;;;;;;;0.30;0.30;;;-1.10;99.90;;;;;;5057060;28;20451;-85
2022/12/11 22:12:21;;;;;;;0.30;0.30;;;-1.10;99.90;;;;;;5056704;28;20454;-85
2022/12/11 22:14:50;;;;;;;0.30;0.20;;;-1.10;99.90;;;;;;5056987;28;20442;-85
2022/12/11 22:17:17;;;;;;;2.10;1.00;;;-1.20;99.90;;;;;;5056577;28;20934;-85
2022/12/11 22:19:44;;;;;;;0.30;0.30;;;-1.10;99.90;;;;;;5056758;28;20462;-85
2022/12/11 22:22:11;;;;;;;1.43;1.33;;;-1.10;99.90;;;;;;5056898;28;20930;-85
2022/12/11 22:24:38;;;;;;;0.30;0.30;;;-1.10;99.90;;;;;;5056733;28;20458;-85
2022/12/11 22:27:05;;;;;;;2.67;2.47;;;-1.10;99.90;;;;;;5056723;28;20482;-85
2022/12/11 22:29:33;;;;;;;1.50;1.23;;;-1.10;99.90;;;;;;5056697;28;20431;-85
2022/12/11 22:32:01;;;;;;;0.30;0.30;;;-1.10;99.90;;;;;;5056536;28;20864;-85
2022/12/11 22:34:29;;;;;;;1.10;1.03;;;-1.10;99.90;;;;;;5056573;28;20868;-85
2022/12/11 22:36:56;;;;;;;0.60;0.60;;;-1.10;99.90;;;;;;5056483;28;20843;-85
2022/12/11 22:39:24;;;;;;;1.07;1.03;;;-1.10;99.90;;;;;;5056397;28;20446;-85
2022/12/11 22:41:51;;;;;;;0.30;0.30;;;-1.10;99.90;;;;;;5056109;28;21008;-84
2022/12/11 22:44:21;;;;;;;1.53;1.43;;;-1.10;99.90;;;;;;5055874;28;20489;-85
2022/12/11 22:46:48;;;;;;;0.60;0.60;;;-1.00;99.90;;;;;;5056322;28;20482;-85
2022/12/11 22:49:16;;;;;;;0.30;0.23;;;-1.10;99.90;;;;;;5056043;28;20450;-85
2022/12/11 22:51:43;;;;;;;0.30;0.30;;;-1.00;99.90;;;;;;5056231;28;20815;-85
2022/12/11 22:54:10;;;;;;;0.30;0.30;;;-1.00;99.90;;;;;;5056074;28;20446;-85
2022/12/11 22:56:37;;;;;;;0.30;0.30;;;-1.00;99.90;;;;;;5056449;28;20448;-85
2022/12/11 22:59:03;;;;;;;4.40;1.03;;;-1.00;99.90;;;;;;5055778;28;20425;-85
2022/12/11 23:01:30;;;;;;;1.30;0.90;;;-1.00;99.90;;;;;;5055883;28;20450;-84
2022/12/11 23:03:57;;;;;;;0.60;0.60;;;-1.00;99.90;;;;;;5056114;28;20517;-85
2022/12/11 23:06:25;;;;;;;0.40;0.40;;;-1.00;99.90;;;;;;5054334;28;20421;-85
2022/12/11 23:08:53;;;;;;;1.33;0.60;;;-1.00;99.90;;;;;;5055677;28;20450;-84
2022/12/11 23:11:24;;;;;;;0.80;0.80;;;-1.00;99.90;;;;;;5056030;28;20799;-85
2022/12/11 23:13:51;;;;;;;0.30;0.30;;;-1.00;99.90;;;;;;5055498;28;20997;-85
2022/12/11 23:16:18;;;;;;;0.30;0.30;;;-1.00;99.90;;;;;;5055738;28;20425;-85
2022/12/11 23:18:45;;;;;;;0.30;0.20;;;-0.90;99.90;;;;;;5055502;28;20425;-85
2022/12/11 23:21:13;;;;;;;0.40;0.40;;;-0.90;99.90;;;;;;5055763;28;20450;-85
2022/12/11 23:23:41;;;;;;;0.67;0.67;;;-0.90;99.90;;;;;;5055651;28;20473;-84
2022/12/11 23:26:10;;;;;;;6.80;0.83;;;-1.00;99.90;;;;;;5055720;28;20508;-85
2022/12/11 23:28:37;;;;;;;2.80;1.07;;;-0.90;99.90;;;;;;5055515;28;20502;-85
2022/12/11 23:31:04;;;;;;;0.40;0.40;;;-0.90;99.90;;;;;;5055185;28;20965;-85
2022/12/11 23:33:31;;;;;;;0.80;0.47;;;-0.90;99.90;;;;;;5055474;28;20437;-85
2022/12/11 23:35:58;;;;;;;4.60;1.50;;;-0.90;99.90;;;;;;5055310;28;20524;-84
2022/12/11 23:38:26;;;;;;;0.30;0.30;;;-0.90;99.90;;;;;;5055186;28;20460;-85
2022/12/11 23:40:54;;;;;;;0.60;0.50;;;-0.90;99.90;;;;;;5055430;28;20420;-85
2022/12/11 23:43:22;;;;;;;0.60;0.60;;;-1.00;99.90;;;;;;5054896;28;20482;-84